sensor_id;sensor_type;location;lat;lon;timestamp;P1;durP1;ratioP1;P2;durP2;ratioP2
7267;SDS011;3675;43.276;27.962;2024-02-14T00:02:00;8.55;;;5.30;;
7267;SDS011;3675;43.276;27.962;2024-02-14T00:07:06;10.32;;;6.03;;
7267;SDS011;3675;43.276;27.962;2024-02-14T00:09:37;11.88;;;6.35;;
7267;SDS011;3675;43.276;27.962;2024-02-14T00:12:08;13.07;;;6.60;;
7267;SDS011;3675;43.276;27.962;2024-02-14T00:14:42;10.27;;;6.32;;
7267;SDS011;3675;43.276;27.962;2024-02-14T00:19:45;10.50;;;6.22;;
7267;SDS011;3675;43.276;27.962;2024-02-14T00:22:16;11.75;;;6.40;;
7267;SDS011;3675;43.276;27.962;2024-02-14T00:24:50;13.55;;;7.75;;
7267;SDS011;3675;43.276;27.962;2024-02-14T00:27:22;12.40;;;7.10;;
7267;SDS011;3675;43.276;27.962;2024-02-14T00:29:57;12.27;;;7.25;;
7267;SDS011;3675;43.276;27.962;2024-02-14T00:32:53;11.50;;;6.60;;
7267;SDS011;3675;43.276;27.962;2024-02-14T00:35:24;13.48;;;8.00;;
7267;SDS011;3675;43.276;27.962;2024-02-14T00:37:56;13.40;;;7.22;;
7267;SDS011;3675;43.276;27.962;2024-02-14T00:40:28;14.75;;;7.88;;
7267;SDS011;3675;43.276;27.962;2024-02-14T00:43:02;13.73;;;7.97;;
7267;SDS011;3675;43.276;27.962;2024-02-14T00:45:36;15.60;;;6.90;;
7267;SDS011;3675;43.276;27.962;2024-02-14T00:48:08;12.82;;;6.88;;
7267;SDS011;3675;43.276;27.962;2024-02-14T00:50:39;14.57;;;7.95;;
7267;SDS011;3675;43.276;27.962;2024-02-14T00:53:11;14.25;;;7.30;;
7267;SDS011;3675;43.276;27.962;2024-02-14T00:55:43;15.57;;;8.48;;
7267;SDS011;3675;43.276;27.962;2024-02-14T00:58:17;12.77;;;8.35;;
7267;SDS011;3675;43.276;27.962;2024-02-14T01:00:51;13.88;;;8.10;;
7267;SDS011;3675;43.276;27.962;2024-02-14T01:03:23;10.90;;;7.13;;
7267;SDS011;3675;43.276;27.962;2024-02-14T01:05:54;13.60;;;7.40;;
7267;SDS011;3675;43.276;27.962;2024-02-14T01:08:27;11.25;;;7.85;;
7267;SDS011;3675;43.276;27.962;2024-02-14T01:10:59;11.15;;;7.03;;
7267;SDS011;3675;43.276;27.962;2024-02-14T01:13:30;13.60;;;8.05;;
7267;SDS011;3675;43.276;27.962;2024-02-14T01:16:05;10.57;;;6.18;;
7267;SDS011;3675;43.276;27.962;2024-02-14T01:18:36;11.88;;;6.72;;
7267;SDS011;3675;43.276;27.962;2024-02-14T01:21:11;12.57;;;6.68;;
7267;SDS011;3675;43.276;27.962;2024-02-14T01:23:44;11.57;;;6.10;;
7267;SDS011;3675;43.276;27.962;2024-02-14T01:26:16;12.13;;;7.78;;
7267;SDS011;3675;43.276;27.962;2024-02-14T01:28:48;12.23;;;7.55;;
7267;SDS011;3675;43.276;27.962;2024-02-14T01:31:22;13.68;;;7.63;;
7267;SDS011;3675;43.276;27.962;2024-02-14T01:33:53;11.93;;;7.93;;
7267;SDS011;3675;43.276;27.962;2024-02-14T01:36:30;12.35;;;7.90;;
7267;SDS011;3675;43.276;27.962;2024-02-14T01:39:02;12.57;;;7.75;;
7267;SDS011;3675;43.276;27.962;2024-02-14T01:41:38;12.85;;;7.05;;
7267;SDS011;3675;43.276;27.962;2024-02-14T01:44:10;12.45;;;8.02;;
7267;SDS011;3675;43.276;27.962;2024-02-14T01:46:43;11.95;;;7.50;;
7267;SDS011;3675;43.276;27.962;2024-02-14T01:49:15;13.05;;;7.55;;
7267;SDS011;3675;43.276;27.962;2024-02-14T01:51:47;11.45;;;7.43;;
7267;SDS011;3675;43.276;27.962;2024-02-14T01:54:19;13.25;;;7.70;;
7267;SDS011;3675;43.276;27.962;2024-02-14T01:56:52;11.15;;;7.25;;
7267;SDS011;3675;43.276;27.962;2024-02-14T01:59:25;11.35;;;7.60;;
7267;SDS011;3675;43.276;27.962;2024-02-14T02:02:00;14.38;;;5.85;;
7267;SDS011;3675;43.276;27.962;2024-02-14T02:04:36;10.00;;;6.68;;
7267;SDS011;3675;43.276;27.962;2024-02-14T02:07:08;8.07;;;5.72;;
7267;SDS011;3675;43.276;27.962;2024-02-14T02:09:39;7.63;;;5.68;;
7267;SDS011;3675;43.276;27.962;2024-02-14T02:12:10;8.48;;;5.95;;
7267;SDS011;3675;43.276;27.962;2024-02-14T02:15:02;8.15;;;5.65;;
7267;SDS011;3675;43.276;27.962;2024-02-14T02:17:57;9.00;;;6.00;;
7267;SDS011;3675;43.276;27.962;2024-02-14T02:20:49;9.10;;;6.15;;
7267;SDS011;3675;43.276;27.962;2024-02-14T02:23:23;8.95;;;5.75;;
7267;SDS011;3675;43.276;27.962;2024-02-14T02:25:55;8.63;;;5.90;;
7267;SDS011;3675;43.276;27.962;2024-02-14T02:28:46;6.57;;;5.22;;
7267;SDS011;3675;43.276;27.962;2024-02-14T02:31:19;8.55;;;5.72;;
7267;SDS011;3675;43.276;27.962;2024-02-14T02:33:50;7.50;;;5.50;;
7267;SDS011;3675;43.276;27.962;2024-02-14T02:36:21;7.60;;;5.47;;
7267;SDS011;3675;43.276;27.962;2024-02-14T02:39:18;7.78;;;5.50;;
7267;SDS011;3675;43.276;27.962;2024-02-14T02:42:09;8.10;;;5.43;;
7267;SDS011;3675;43.276;27.962;2024-02-14T02:45:02;8.10;;;5.05;;
7267;SDS011;3675;43.276;27.962;2024-02-14T02:47:53;7.50;;;5.20;;
7267;SDS011;3675;43.276;27.962;2024-02-14T02:50:49;5.20;;;4.32;;
7267;SDS011;3675;43.276;27.962;2024-02-14T02:53:39;5.45;;;4.85;;
7267;SDS011;3675;43.276;27.962;2024-02-14T02:56:36;6.38;;;5.07;;
7267;SDS011;3675;43.276;27.962;2024-02-14T02:59:08;6.43;;;4.80;;
7267;SDS011;3675;43.276;27.962;2024-02-14T03:01:41;7.40;;;4.88;;
7267;SDS011;3675;43.276;27.962;2024-02-14T03:04:32;5.60;;;4.10;;
7267;SDS011;3675;43.276;27.962;2024-02-14T03:07:38;5.57;;;4.15;;
7267;SDS011;3675;43.276;27.962;2024-02-14T03:10:33;5.47;;;4.20;;
7267;SDS011;3675;43.276;27.962;2024-02-14T03:13:27;4.00;;;3.53;;
7267;SDS011;3675;43.276;27.962;2024-02-14T03:16:19;5.70;;;4.22;;
7267;SDS011;3675;43.276;27.962;2024-02-14T03:18:52;4.82;;;3.70;;
7267;SDS011;3675;43.276;27.962;2024-02-14T03:21:24;5.43;;;4.68;;
7267;SDS011;3675;43.276;27.962;2024-02-14T03:23:57;8.57;;;4.75;;
7267;SDS011;3675;43.276;27.962;2024-02-14T03:26:29;5.90;;;4.22;;
7267;SDS011;3675;43.276;27.962;2024-02-14T03:29:06;4.05;;;3.65;;
7267;SDS011;3675;43.276;27.962;2024-02-14T03:31:38;4.78;;;4.13;;
7267;SDS011;3675;43.276;27.962;2024-02-14T03:34:11;4.90;;;3.88;;
7267;SDS011;3675;43.276;27.962;2024-02-14T03:36:43;6.50;;;4.40;;
7267;SDS011;3675;43.276;27.962;2024-02-14T03:39:15;5.95;;;4.43;;
7267;SDS011;3675;43.276;27.962;2024-02-14T03:41:46;5.20;;;3.78;;
7267;SDS011;3675;43.276;27.962;2024-02-14T03:44:18;6.50;;;4.53;;
7267;SDS011;3675;43.276;27.962;2024-02-14T03:46:52;7.05;;;3.92;;
7267;SDS011;3675;43.276;27.962;2024-02-14T03:49:24;4.30;;;3.72;;
7267;SDS011;3675;43.276;27.962;2024-02-14T03:51:57;6.80;;;4.65;;
7267;SDS011;3675;43.276;27.962;2024-02-14T03:54:32;5.40;;;3.38;;
7267;SDS011;3675;43.276;27.962;2024-02-14T03:57:05;5.53;;;3.97;;
7267;SDS011;3675;43.276;27.962;2024-02-14T03:59:43;5.95;;;4.03;;
7267;SDS011;3675;43.276;27.962;2024-02-14T04:02:15;7.50;;;4.75;;
7267;SDS011;3675;43.276;27.962;2024-02-14T04:04:46;8.57;;;5.20;;
7267;SDS011;3675;43.276;27.962;2024-02-14T04:07:18;4.95;;;3.65;;
7267;SDS011;3675;43.276;27.962;2024-02-14T04:09:50;7.75;;;5.35;;
7267;SDS011;3675;43.276;27.962;2024-02-14T04:12:21;6.30;;;4.55;;
7267;SDS011;3675;43.276;27.962;2024-02-14T04:14:56;8.63;;;4.47;;
7267;SDS011;3675;43.276;27.962;2024-02-14T04:19:58;7.55;;;5.13;;
7267;SDS011;3675;43.276;27.962;2024-02-14T04:22:30;6.63;;;4.50;;
7267;SDS011;3675;43.276;27.962;2024-02-14T04:25:01;6.68;;;4.05;;
7267;SDS011;3675;43.276;27.962;2024-02-14T04:27:34;6.57;;;4.50;;
7267;SDS011;3675;43.276;27.962;2024-02-14T04:30:09;6.38;;;4.18;;
7267;SDS011;3675;43.276;27.962;2024-02-14T04:33:02;5.60;;;3.40;;
7267;SDS011;3675;43.276;27.962;2024-02-14T04:35:42;6.05;;;4.35;;
7267;SDS011;3675;43.276;27.962;2024-02-14T04:38:13;5.50;;;3.92;;
7267;SDS011;3675;43.276;27.962;2024-02-14T04:40:46;5.20;;;3.83;;
7267;SDS011;3675;43.276;27.962;2024-02-14T04:43:17;5.28;;;3.78;;
7267;SDS011;3675;43.276;27.962;2024-02-14T04:45:52;6.20;;;3.42;;
7267;SDS011;3675;43.276;27.962;2024-02-14T04:48:28;5.10;;;3.30;;
7267;SDS011;3675;43.276;27.962;2024-02-14T04:50:59;5.47;;;3.55;;
7267;SDS011;3675;43.276;27.962;2024-02-14T04:53:34;4.80;;;3.80;;
7267;SDS011;3675;43.276;27.962;2024-02-14T04:56:07;6.57;;;3.90;;
7267;SDS011;3675;43.276;27.962;2024-02-14T04:58:39;5.82;;;3.70;;
7267;SDS011;3675;43.276;27.962;2024-02-14T05:01:14;6.07;;;4.03;;
7267;SDS011;3675;43.276;27.962;2024-02-14T05:03:50;4.78;;;3.20;;
7267;SDS011;3675;43.276;27.962;2024-02-14T05:06:24;4.13;;;2.75;;
7267;SDS011;3675;43.276;27.962;2024-02-14T05:08:58;9.35;;;4.15;;
7267;SDS011;3675;43.276;27.962;2024-02-14T05:11:33;6.78;;;3.92;;
7267;SDS011;3675;43.276;27.962;2024-02-14T05:14:05;6.63;;;4.15;;
7267;SDS011;3675;43.276;27.962;2024-02-14T05:16:51;6.43;;;4.05;;
7267;SDS011;3675;43.276;27.962;2024-02-14T05:19:31;6.82;;;3.90;;
7267;SDS011;3675;43.276;27.962;2024-02-14T05:22:07;5.28;;;3.97;;
7267;SDS011;3675;43.276;27.962;2024-02-14T05:24:41;4.05;;;2.97;;
7267;SDS011;3675;43.276;27.962;2024-02-14T05:27:17;6.07;;;4.25;;
7267;SDS011;3675;43.276;27.962;2024-02-14T05:29:52;5.22;;;3.40;;
7267;SDS011;3675;43.276;27.962;2024-02-14T05:32:26;6.38;;;3.88;;
7267;SDS011;3675;43.276;27.962;2024-02-14T05:34:59;6.22;;;4.00;;
7267;SDS011;3675;43.276;27.962;2024-02-14T05:37:37;6.50;;;3.92;;
7267;SDS011;3675;43.276;27.962;2024-02-14T05:40:14;8.07;;;3.75;;
7267;SDS011;3675;43.276;27.962;2024-02-14T05:42:47;7.38;;;4.38;;
7267;SDS011;3675;43.276;27.962;2024-02-14T05:45:19;6.15;;;4.07;;
7267;SDS011;3675;43.276;27.962;2024-02-14T05:47:54;6.75;;;4.28;;
7267;SDS011;3675;43.276;27.962;2024-02-14T05:50:27;6.32;;;4.03;;
7267;SDS011;3675;43.276;27.962;2024-02-14T05:53:04;5.43;;;3.75;;
7267;SDS011;3675;43.276;27.962;2024-02-14T05:55:36;5.35;;;3.67;;
7267;SDS011;3675;43.276;27.962;2024-02-14T05:58:10;5.47;;;4.05;;
7267;SDS011;3675;43.276;27.962;2024-02-14T06:00:43;5.97;;;4.28;;
7267;SDS011;3675;43.276;27.962;2024-02-14T06:03:23;7.10;;;4.18;;
7267;SDS011;3675;43.276;27.962;2024-02-14T06:05:58;8.82;;;4.18;;
7267;SDS011;3675;43.276;27.962;2024-02-14T06:08:30;6.05;;;3.80;;
7267;SDS011;3675;43.276;27.962;2024-02-14T06:11:13;5.53;;;4.25;;
7267;SDS011;3675;43.276;27.962;2024-02-14T06:13:58;8.18;;;3.90;;
7267;SDS011;3675;43.276;27.962;2024-02-14T06:16:30;6.57;;;4.68;;
7267;SDS011;3675;43.276;27.962;2024-02-14T06:19:13;6.63;;;4.35;;
7267;SDS011;3675;43.276;27.962;2024-02-14T06:21:49;7.20;;;4.75;;
7267;SDS011;3675;43.276;27.962;2024-02-14T06:24:21;4.85;;;3.78;;
7267;SDS011;3675;43.276;27.962;2024-02-14T06:26:55;6.55;;;4.57;;
7267;SDS011;3675;43.276;27.962;2024-02-14T06:29:29;6.07;;;3.90;;
7267;SDS011;3675;43.276;27.962;2024-02-14T06:32:17;5.68;;;4.20;;
7267;SDS011;3675;43.276;27.962;2024-02-14T06:35:00;5.78;;;4.43;;
7267;SDS011;3675;43.276;27.962;2024-02-14T06:37:37;5.30;;;4.53;;
7267;SDS011;3675;43.276;27.962;2024-02-14T06:40:22;7.28;;;4.45;;
7267;SDS011;3675;43.276;27.962;2024-02-14T06:42:57;7.28;;;4.57;;
7267;SDS011;3675;43.276;27.962;2024-02-14T06:45:31;10.18;;;4.53;;
7267;SDS011;3675;43.276;27.962;2024-02-14T06:48:18;7.25;;;4.97;;
7267;SDS011;3675;43.276;27.962;2024-02-14T06:50:58;4.95;;;4.20;;
7267;SDS011;3675;43.276;27.962;2024-02-14T06:53:33;7.32;;;5.15;;
7267;SDS011;3675;43.276;27.962;2024-02-14T06:56:13;5.75;;;4.45;;
7267;SDS011;3675;43.276;27.962;2024-02-14T06:59:06;9.65;;;5.55;;
7267;SDS011;3675;43.276;27.962;2024-02-14T07:01:48;8.10;;;4.85;;
7267;SDS011;3675;43.276;27.962;2024-02-14T07:04:42;6.03;;;4.20;;
7267;SDS011;3675;43.276;27.962;2024-02-14T07:07:19;6.00;;;3.80;;
7267;SDS011;3675;43.276;27.962;2024-02-14T07:09:59;8.15;;;4.85;;
7267;SDS011;3675;43.276;27.962;2024-02-14T07:12:36;6.68;;;3.70;;
7267;SDS011;3675;43.276;27.962;2024-02-14T07:15:09;5.13;;;4.00;;
7267;SDS011;3675;43.276;27.962;2024-02-14T07:17:47;7.05;;;4.93;;
7267;SDS011;3675;43.276;27.962;2024-02-14T07:20:22;5.32;;;4.43;;
7267;SDS011;3675;43.276;27.962;2024-02-14T07:23:11;4.25;;;3.45;;
7267;SDS011;3675;43.276;27.962;2024-02-14T07:25:51;8.10;;;4.03;;
7267;SDS011;3675;43.276;27.962;2024-02-14T07:28:23;5.38;;;4.05;;
7267;SDS011;3675;43.276;27.962;2024-02-14T07:30:58;6.22;;;4.13;;
7267;SDS011;3675;43.276;27.962;2024-02-14T07:33:30;7.10;;;3.97;;
7267;SDS011;3675;43.276;27.962;2024-02-14T07:36:03;6.43;;;3.50;;
7267;SDS011;3675;43.276;27.962;2024-02-14T07:38:51;5.43;;;3.90;;
7267;SDS011;3675;43.276;27.962;2024-02-14T07:41:23;6.45;;;4.53;;
7267;SDS011;3675;43.276;27.962;2024-02-14T07:43:58;7.80;;;4.40;;
7267;SDS011;3675;43.276;27.962;2024-02-14T07:46:33;6.15;;;3.75;;
7267;SDS011;3675;43.276;27.962;2024-02-14T07:49:06;7.05;;;4.15;;
7267;SDS011;3675;43.276;27.962;2024-02-14T07:51:41;6.03;;;3.97;;
7267;SDS011;3675;43.276;27.962;2024-02-14T07:54:34;4.07;;;3.22;;
7267;SDS011;3675;43.276;27.962;2024-02-14T07:57:09;5.43;;;3.70;;
7267;SDS011;3675;43.276;27.962;2024-02-14T07:59:41;4.55;;;3.20;;
7267;SDS011;3675;43.276;27.962;2024-02-14T08:02:13;5.10;;;3.70;;
7267;SDS011;3675;43.276;27.962;2024-02-14T08:04:48;4.78;;;3.85;;
7267;SDS011;3675;43.276;27.962;2024-02-14T08:07:25;4.97;;;3.55;;
7267;SDS011;3675;43.276;27.962;2024-02-14T08:10:29;5.10;;;3.65;;
7267;SDS011;3675;43.276;27.962;2024-02-14T08:13:10;4.80;;;3.17;;
7267;SDS011;3675;43.276;27.962;2024-02-14T08:15:47;3.30;;;2.80;;
7267;SDS011;3675;43.276;27.962;2024-02-14T08:18:31;3.33;;;2.50;;
7267;SDS011;3675;43.276;27.962;2024-02-14T08:21:07;3.33;;;2.67;;
7267;SDS011;3675;43.276;27.962;2024-02-14T08:23:43;3.20;;;2.35;;
7267;SDS011;3675;43.276;27.962;2024-02-14T08:26:21;3.08;;;2.55;;
7267;SDS011;3675;43.276;27.962;2024-02-14T08:29:00;3.25;;;2.50;;
7267;SDS011;3675;43.276;27.962;2024-02-14T08:31:33;4.13;;;2.38;;
7267;SDS011;3675;43.276;27.962;2024-02-14T08:34:06;3.55;;;2.72;;
7267;SDS011;3675;43.276;27.962;2024-02-14T08:36:40;3.17;;;2.30;;
7267;SDS011;3675;43.276;27.962;2024-02-14T08:39:12;3.60;;;2.35;;
7267;SDS011;3675;43.276;27.962;2024-02-14T08:41:47;2.97;;;2.30;;
7267;SDS011;3675;43.276;27.962;2024-02-14T08:44:21;2.67;;;2.47;;
7267;SDS011;3675;43.276;27.962;2024-02-14T08:46:57;2.60;;;2.00;;
7267;SDS011;3675;43.276;27.962;2024-02-14T08:49:29;3.80;;;2.35;;
7267;SDS011;3675;43.276;27.962;2024-02-14T08:52:04;3.10;;;2.38;;
7267;SDS011;3675;43.276;27.962;2024-02-14T08:54:40;3.55;;;2.72;;
7267;SDS011;3675;43.276;27.962;2024-02-14T08:57:15;2.15;;;1.95;;
7267;SDS011;3675;43.276;27.962;2024-02-14T08:59:48;4.13;;;2.42;;
7267;SDS011;3675;43.276;27.962;2024-02-14T09:02:24;2.47;;;2.25;;
7267;SDS011;3675;43.276;27.962;2024-02-14T09:05:07;3.15;;;2.50;;
7267;SDS011;3675;43.276;27.962;2024-02-14T09:07:50;2.40;;;2.20;;
7267;SDS011;3675;43.276;27.962;2024-02-14T09:10:25;2.25;;;2.00;;
7267;SDS011;3675;43.276;27.962;2024-02-14T09:13:03;3.60;;;2.65;;
7267;SDS011;3675;43.276;27.962;2024-02-14T09:15:39;3.78;;;2.85;;
7267;SDS011;3675;43.276;27.962;2024-02-14T09:18:17;4.03;;;2.97;;
7267;SDS011;3675;43.276;27.962;2024-02-14T09:20:50;3.97;;;3.20;;
7267;SDS011;3675;43.276;27.962;2024-02-14T09:26:02;4.88;;;2.85;;
7267;SDS011;3675;43.276;27.962;2024-02-14T09:28:42;5.25;;;2.95;;
7267;SDS011;3675;43.276;27.962;2024-02-14T09:31:17;4.82;;;3.20;;
7267;SDS011;3675;43.276;27.962;2024-02-14T09:33:52;4.03;;;2.88;;
7267;SDS011;3675;43.276;27.962;2024-02-14T09:36:30;3.15;;;2.28;;
7267;SDS011;3675;43.276;27.962;2024-02-14T09:39:05;4.25;;;2.47;;
7267;SDS011;3675;43.276;27.962;2024-02-14T09:41:50;2.75;;;2.30;;
7267;SDS011;3675;43.276;27.962;2024-02-14T09:44:30;3.13;;;2.08;;
7267;SDS011;3675;43.276;27.962;2024-02-14T09:47:05;2.75;;;1.95;;
7267;SDS011;3675;43.276;27.962;2024-02-14T09:49:44;3.30;;;2.22;;
7267;SDS011;3675;43.276;27.962;2024-02-14T09:52:30;5.20;;;2.13;;
7267;SDS011;3675;43.276;27.962;2024-02-14T09:55:06;2.67;;;2.35;;
7267;SDS011;3675;43.276;27.962;2024-02-14T09:57:42;2.72;;;2.03;;
7267;SDS011;3675;43.276;27.962;2024-02-14T10:00:21;2.97;;;2.50;;
7267;SDS011;3675;43.276;27.962;2024-02-14T10:02:59;2.22;;;1.80;;
7267;SDS011;3675;43.276;27.962;2024-02-14T10:05:36;4.38;;;2.50;;
7267;SDS011;3675;43.276;27.962;2024-02-14T10:08:14;4.53;;;2.40;;
7267;SDS011;3675;43.276;27.962;2024-02-14T10:10:49;3.42;;;2.42;;
7267;SDS011;3675;43.276;27.962;2024-02-14T10:13:26;3.13;;;2.78;;
7267;SDS011;3675;43.276;27.962;2024-02-14T10:16:07;2.83;;;2.15;;
7267;SDS011;3675;43.276;27.962;2024-02-14T10:18:43;3.90;;;2.47;;
7267;SDS011;3675;43.276;27.962;2024-02-14T10:21:22;2.47;;;2.10;;
7267;SDS011;3675;43.276;27.962;2024-02-14T10:23:59;2.97;;;2.28;;
7267;SDS011;3675;43.276;27.962;2024-02-14T10:26:43;3.75;;;2.40;;
7267;SDS011;3675;43.276;27.962;2024-02-14T10:29:18;4.03;;;2.45;;
7267;SDS011;3675;43.276;27.962;2024-02-14T10:31:54;3.83;;;2.58;;
7267;SDS011;3675;43.276;27.962;2024-02-14T10:34:27;2.63;;;2.35;;
7267;SDS011;3675;43.276;27.962;2024-02-14T10:37:03;3.42;;;2.10;;
7267;SDS011;3675;43.276;27.962;2024-02-14T10:39:41;2.22;;;1.83;;
7267;SDS011;3675;43.276;27.962;2024-02-14T10:42:20;2.30;;;2.00;;
7267;SDS011;3675;43.276;27.962;2024-02-14T10:45:02;2.78;;;2.20;;
7267;SDS011;3675;43.276;27.962;2024-02-14T10:47:53;2.35;;;1.92;;
7267;SDS011;3675;43.276;27.962;2024-02-14T10:50:51;2.70;;;1.92;;
7267;SDS011;3675;43.276;27.962;2024-02-14T10:53:29;4.72;;;2.45;;
7267;SDS011;3675;43.276;27.962;2024-02-14T10:56:08;2.78;;;2.45;;
7267;SDS011;3675;43.276;27.962;2024-02-14T10:58:47;2.97;;;2.42;;
7267;SDS011;3675;43.276;27.962;2024-02-14T11:01:20;4.60;;;2.90;;
7267;SDS011;3675;43.276;27.962;2024-02-14T11:03:55;2.47;;;2.20;;
7267;SDS011;3675;43.276;27.962;2024-02-14T11:06:28;2.85;;;2.00;;
7267;SDS011;3675;43.276;27.962;2024-02-14T11:09:02;1.60;;;1.50;;
7267;SDS011;3675;43.276;27.962;2024-02-14T11:11:48;2.53;;;1.67;;
7267;SDS011;3675;43.276;27.962;2024-02-14T11:14:23;3.13;;;2.08;;
7267;SDS011;3675;43.276;27.962;2024-02-14T11:17:00;2.85;;;2.00;;
7267;SDS011;3675;43.276;27.962;2024-02-14T11:19:42;2.42;;;1.75;;
7267;SDS011;3675;43.276;27.962;2024-02-14T11:22:18;2.67;;;1.90;;
7267;SDS011;3675;43.276;27.962;2024-02-14T11:24:56;1.88;;;1.67;;
7267;SDS011;3675;43.276;27.962;2024-02-14T11:27:43;2.50;;;2.10;;
7267;SDS011;3675;43.276;27.962;2024-02-14T11:30:26;3.13;;;1.98;;
7267;SDS011;3675;43.276;27.962;2024-02-14T11:33:16;2.30;;;2.10;;
7267;SDS011;3675;43.276;27.962;2024-02-14T11:35:53;3.15;;;2.25;;
7267;SDS011;3675;43.276;27.962;2024-02-14T11:38:30;2.88;;;1.80;;
7267;SDS011;3675;43.276;27.962;2024-02-14T11:41:27;2.67;;;1.65;;
7267;SDS011;3675;43.276;27.962;2024-02-14T11:44:01;1.60;;;1.45;;
7267;SDS011;3675;43.276;27.962;2024-02-14T11:46:41;4.03;;;2.42;;
7267;SDS011;3675;43.276;27.962;2024-02-14T11:49:22;3.25;;;1.65;;
7267;SDS011;3675;43.276;27.962;2024-02-14T11:51:57;2.97;;;1.52;;
7267;SDS011;3675;43.276;27.962;2024-02-14T11:57:07;2.88;;;2.30;;
7267;SDS011;3675;43.276;27.962;2024-02-14T11:59:55;2.28;;;2.08;;
7267;SDS011;3675;43.276;27.962;2024-02-14T12:02:48;4.45;;;2.00;;
7267;SDS011;3675;43.276;27.962;2024-02-14T12:05:26;2.17;;;1.60;;
7267;SDS011;3675;43.276;27.962;2024-02-14T12:08:01;2.67;;;1.70;;
7267;SDS011;3675;43.276;27.962;2024-02-14T12:10:35;1.98;;;1.40;;
7267;SDS011;3675;43.276;27.962;2024-02-14T12:13:30;2.58;;;1.85;;
7267;SDS011;3675;43.276;27.962;2024-02-14T12:16:27;2.70;;;2.05;;
7267;SDS011;3675;43.276;27.962;2024-02-14T12:19:15;3.83;;;2.17;;
7267;SDS011;3675;43.276;27.962;2024-02-14T12:22:48;2.47;;;1.77;;
7267;SDS011;3675;43.276;27.962;2024-02-14T12:25:14;3.78;;;2.67;;
7267;SDS011;3675;43.276;27.962;2024-02-14T12:27:53;3.53;;;1.80;;
7267;SDS011;3675;43.276;27.962;2024-02-14T12:30:42;3.55;;;2.00;;
7267;SDS011;3675;43.276;27.962;2024-02-14T12:33:21;2.90;;;2.08;;
7267;SDS011;3675;43.276;27.962;2024-02-14T12:36:08;2.50;;;2.30;;
7267;SDS011;3675;43.276;27.962;2024-02-14T12:38:48;3.80;;;2.20;;
7267;SDS011;3675;43.276;27.962;2024-02-14T12:41:33;2.35;;;1.65;;
7267;SDS011;3675;43.276;27.962;2024-02-14T12:44:19;2.17;;;1.60;;
7267;SDS011;3675;43.276;27.962;2024-02-14T12:46:56;2.10;;;1.90;;
7267;SDS011;3675;43.276;27.962;2024-02-14T12:49:35;2.80;;;2.53;;
7267;SDS011;3675;43.276;27.962;2024-02-14T12:52:17;3.25;;;2.13;;
7267;SDS011;3675;43.276;27.962;2024-02-14T12:54:56;2.63;;;2.00;;
7267;SDS011;3675;43.276;27.962;2024-02-14T12:57:34;2.50;;;1.63;;
7267;SDS011;3675;43.276;27.962;2024-02-14T13:00:09;4.65;;;2.28;;
7267;SDS011;3675;43.276;27.962;2024-02-14T13:02:48;2.70;;;1.77;;
7267;SDS011;3675;43.276;27.962;2024-02-14T13:05:34;3.38;;;2.28;;
7267;SDS011;3675;43.276;27.962;2024-02-14T13:08:14;2.35;;;2.15;;
7267;SDS011;3675;43.276;27.962;2024-02-14T13:10:56;3.22;;;2.35;;
7267;SDS011;3675;43.276;27.962;2024-02-14T13:13:44;2.17;;;1.98;;
7267;SDS011;3675;43.276;27.962;2024-02-14T13:16:23;7.03;;;2.40;;
7267;SDS011;3675;43.276;27.962;2024-02-14T13:18:56;3.40;;;2.58;;
7267;SDS011;3675;43.276;27.962;2024-02-14T13:24:20;4.22;;;2.00;;
7267;SDS011;3675;43.276;27.962;2024-02-14T13:27:00;3.38;;;2.58;;
7267;SDS011;3675;43.276;27.962;2024-02-14T13:29:36;3.90;;;2.60;;
7267;SDS011;3675;43.276;27.962;2024-02-14T13:32:10;3.38;;;2.35;;
7267;SDS011;3675;43.276;27.962;2024-02-14T13:34:44;4.85;;;2.30;;
7267;SDS011;3675;43.276;27.962;2024-02-14T13:37:25;3.80;;;2.90;;
7267;SDS011;3675;43.276;27.962;2024-02-14T13:40:04;4.78;;;3.05;;
7267;SDS011;3675;43.276;27.962;2024-02-14T13:43:01;2.60;;;2.35;;
7267;SDS011;3675;43.276;27.962;2024-02-14T13:45:45;5.13;;;4.68;;
7267;SDS011;3675;43.276;27.962;2024-02-14T13:48:28;8.57;;;7.03;;
7267;SDS011;3675;43.276;27.962;2024-02-14T13:51:04;7.97;;;7.10;;
7267;SDS011;3675;43.276;27.962;2024-02-14T13:53:46;3.35;;;3.05;;
7267;SDS011;3675;43.276;27.962;2024-02-14T13:56:21;3.75;;;3.17;;
7267;SDS011;3675;43.276;27.962;2024-02-14T13:59:04;4.18;;;3.20;;
7267;SDS011;3675;43.276;27.962;2024-02-14T14:01:56;5.07;;;3.60;;
7267;SDS011;3675;43.276;27.962;2024-02-14T14:04:37;3.90;;;3.60;;
7267;SDS011;3675;43.276;27.962;2024-02-14T14:07:12;3.10;;;2.67;;
7267;SDS011;3675;43.276;27.962;2024-02-14T14:09:56;2.67;;;2.45;;
7267;SDS011;3675;43.276;27.962;2024-02-14T14:12:42;3.42;;;2.70;;
7267;SDS011;3675;43.276;27.962;2024-02-14T14:15:24;3.83;;;2.55;;
7267;SDS011;3675;43.276;27.962;2024-02-14T14:18:08;3.50;;;2.88;;
7267;SDS011;3675;43.276;27.962;2024-02-14T14:20:45;6.13;;;4.53;;
7267;SDS011;3675;43.276;27.962;2024-02-14T14:23:27;3.45;;;3.13;;
7267;SDS011;3675;43.276;27.962;2024-02-14T14:26:07;16.20;;;12.40;;
7267;SDS011;3675;43.276;27.962;2024-02-14T14:28:50;5.15;;;4.70;;
7267;SDS011;3675;43.276;27.962;2024-02-14T14:31:30;4.55;;;3.47;;
7267;SDS011;3675;43.276;27.962;2024-02-14T14:34:11;3.00;;;2.45;;
7267;SDS011;3675;43.276;27.962;2024-02-14T14:36:50;3.00;;;2.42;;
7267;SDS011;3675;43.276;27.962;2024-02-14T14:39:24;3.30;;;2.40;;
7267;SDS011;3675;43.276;27.962;2024-02-14T14:42:01;4.05;;;2.67;;
7267;SDS011;3675;43.276;27.962;2024-02-14T14:44:33;8.40;;;1.95;;
7267;SDS011;3675;43.276;27.962;2024-02-14T14:47:07;3.20;;;2.67;;
7267;SDS011;3675;43.276;27.962;2024-02-14T14:49:41;3.20;;;2.90;;
7267;SDS011;3675;43.276;27.962;2024-02-14T14:52:19;2.45;;;1.98;;
7267;SDS011;3675;43.276;27.962;2024-02-14T14:54:55;6.25;;;2.30;;
7267;SDS011;3675;43.276;27.962;2024-02-14T14:57:33;2.50;;;2.30;;
7267;SDS011;3675;43.276;27.962;2024-02-14T15:00:09;3.05;;;2.75;;
7267;SDS011;3675;43.276;27.962;2024-02-14T15:02:46;2.75;;;2.17;;
7267;SDS011;3675;43.276;27.962;2024-02-14T15:05:30;3.17;;;2.20;;
7267;SDS011;3675;43.276;27.962;2024-02-14T15:08:09;3.55;;;2.53;;
7267;SDS011;3675;43.276;27.962;2024-02-14T15:10:44;3.80;;;2.80;;
7267;SDS011;3675;43.276;27.962;2024-02-14T15:13:20;3.33;;;3.03;;
7267;SDS011;3675;43.276;27.962;2024-02-14T15:15:53;4.90;;;4.47;;
7267;SDS011;3675;43.276;27.962;2024-02-14T15:18:33;4.20;;;3.30;;
7267;SDS011;3675;43.276;27.962;2024-02-14T15:21:08;3.45;;;3.25;;
7267;SDS011;3675;43.276;27.962;2024-02-14T15:23:44;4.78;;;4.22;;
7267;SDS011;3675;43.276;27.962;2024-02-14T15:26:19;5.05;;;4.10;;
7267;SDS011;3675;43.276;27.962;2024-02-14T15:28:58;3.63;;;3.33;;
7267;SDS011;3675;43.276;27.962;2024-02-14T15:31:49;5.10;;;2.72;;
7267;SDS011;3675;43.276;27.962;2024-02-14T15:34:34;18.00;;;10.30;;
7267;SDS011;3675;43.276;27.962;2024-02-14T15:37:10;34.40;;;17.50;;
7267;SDS011;3675;43.276;27.962;2024-02-14T15:39:43;42.95;;;18.35;;
7267;SDS011;3675;43.276;27.962;2024-02-14T15:42:15;43.50;;;20.20;;
7267;SDS011;3675;43.276;27.962;2024-02-14T15:44:52;46.72;;;20.63;;
7267;SDS011;3675;43.276;27.962;2024-02-14T15:47:24;29.23;;;17.75;;
7267;SDS011;3675;43.276;27.962;2024-02-14T15:50:17;28.67;;;14.85;;
7267;SDS011;3675;43.276;27.962;2024-02-14T15:52:59;10.95;;;6.25;;
7267;SDS011;3675;43.276;27.962;2024-02-14T15:55:33;11.90;;;7.60;;
7267;SDS011;3675;43.276;27.962;2024-02-14T15:58:05;6.03;;;4.82;;
7267;SDS011;3675;43.276;27.962;2024-02-14T16:00:37;6.10;;;4.03;;
7267;SDS011;3675;43.276;27.962;2024-02-14T16:03:09;5.32;;;3.95;;
7267;SDS011;3675;43.276;27.962;2024-02-14T16:05:47;5.00;;;2.92;;
7267;SDS011;3675;43.276;27.962;2024-02-14T16:08:22;6.28;;;2.75;;
7267;SDS011;3675;43.276;27.962;2024-02-14T16:10:55;2.97;;;2.67;;
7267;SDS011;3675;43.276;27.962;2024-02-14T16:13:27;3.67;;;3.30;;
7267;SDS011;3675;43.276;27.962;2024-02-14T16:16:01;3.22;;;2.78;;
7267;SDS011;3675;43.276;27.962;2024-02-14T16:18:35;2.97;;;2.15;;